Time;durP1;ratioP1;P1;durP2;ratioP2;P2;SDS_P1;SDS_P2;PMS_P1;PMS_P2;Temp;Humidity;BMP_temperature;BMP_pressure;BME280_temperature;BME280_humidity;BME280_pressure;Samples;Min_cycle;Max_cycle;Signal;HPM_P1;HPM_P2
2021/01/27 09:00:56;;;;;;;;;;;;;;;;;;4999923;28;20539;-86
2021/01/27 09:09:02;;;;;;;;;;;;;;;;;;4953644;29;20289;-84
2021/01/27 09:11:29;;;;;;;;;;;;;;;;;;4959341;28;20152;-87
2021/01/27 09:13:55;;;;;;;;;;;;;;;;;;4964691;28;20090;-89
2021/01/27 09:16:26;;;;;;;;;;;;;;;;;;4962372;28;20040;-88
2021/01/27 09:18:54;;;;;;;;;;;;;;;;;;4977587;29;20156;-87
2021/01/27 09:21:20;;;;;;;;;;;;;;;;;;4962458;29;20031;-87
2021/01/27 09:23:48;;;;;;;;;;;;;;;;;;4977613;28;25085;-87
2021/01/27 09:26:14;;;;;;;;;;;;;;;;;;4972354;28;19975;-88
2021/01/27 09:28:41;;;;;;;;;;;;;;;;;;4966189;28;19945;-88
2021/01/27 09:31:07;;;;;;;;;;;;;;;;;;4972073;28;20517;-88
2021/01/27 09:33:34;;;;;;;;;;;;;;;;;;4975747;28;19963;-87
2021/01/27 09:36:00;;;;;;;;;;;;;;;;;;4975156;28;19997;-88
2021/01/27 09:38:27;;;;;;;;;;;;;;;;;;4987018;28;19926;-88
2021/01/27 09:40:53;;;;;;;;;;;;;;;;;;5021711;28;19925;-88
2021/01/27 09:43:20;;;;;;;;;;;;;;;;;;5066319;28;19933;-88
2021/01/27 09:45:47;;;;;;;;;;;;;;;;;;5057860;28;19971;-88
2021/01/27 09:48:24;;;;;;;;;;;;;;;;;;5039535;28;19942;-91
2021/01/27 09:50:50;;;;;;;;;;;;;;;;;;5031238;28;20029;-86
2021/01/27 09:53:17;;;;;;;;;;;;;;;;;;5048816;28;19976;-89
2021/01/27 09:55:44;;;;;;;;;;;;;;;;;;5056327;28;19979;-87
2021/01/27 09:58:11;;;;;;;;;;;;;;;;;;5056604;28;19967;-88
2021/01/27 10:00:37;;;;;;;;;;;;;;;;;;5036909;28;20000;-88
2021/01/27 10:03:04;;;;;;;;;;;;;;;;;;5037292;28;20474;-88
2021/01/27 10:05:30;;;;;;;;;;;;;;;;;;5037140;28;19996;-88
2021/01/27 10:07:57;;;;;;;;;;;;;;;;;;5048098;28;19960;-89
2021/01/27 10:10:24;;;;;;;;;;;;;;;;;;5049919;28;19937;-90
2021/01/27 10:12:50;;;;;;;;;;;;;;;;;;5056179;28;19943;-90
2021/01/27 10:15:16;;;;;;;;;;;;;;;;;;5044481;28;20015;-89
2021/01/27 10:17:43;;;;;;;;;;;;;;;;;;5058549;28;19924;-89
2021/01/27 10:20:09;;;;;;;;;;;;;;;;;;5055105;28;19924;-89
2021/01/27 10:22:36;;;;;;;;;;;;;;;;;;5058642;28;19921;-90
2021/01/27 10:25:03;;;;;;;;;;;;;;;;;;5055648;28;19921;-88
2021/01/27 10:27:30;;;;;;;;;;;;;;;;;;5050819;28;19936;-89
2021/01/27 10:29:56;;;;;;;;;;;;;;;;;;5053833;28;19921;-86
2021/01/27 10:32:24;;;;;;;;;;;;;;;;;;5069071;28;19974;-86
2021/01/27 10:34:51;;;;;;;;;;;;;;;;;;5052181;28;19948;-88
2021/01/27 10:37:17;;;;;;;;;;;;;;;;;;5053860;28;20438;-87
2021/01/27 10:39:44;;;;;;;;;;;;;;;;;;5056459;28;19915;-86
2021/01/27 10:42:10;;;;;;;;;;;;;;;;;;5068131;28;19948;-87
2021/01/27 10:44:37;;;;;;;;;;;;;;;;;;5060549;28;19963;-87
2021/01/27 10:47:03;;;;;;;;;;;;;;;;;;5061236;28;19927;-87
2021/01/27 10:49:33;;;;;;;;;;;;;;;;;;5059609;28;19925;-85
2021/01/27 10:51:59;;;;;;;;;;;;;;;;;;5038824;28;19925;-83
2021/01/27 10:54:26;;;;;;;;;;;;;;;;;;5047256;28;19955;-84
2021/01/27 10:56:53;;;;;;;;;;;;;;;;;;5058622;28;19927;-86
2021/01/27 10:59:19;;;;;;;;;;;;;;;;;;5053783;28;20706;-85
2021/01/27 11:01:45;;;;;;;;;;;;;;;;;;5060445;28;19928;-85
2021/01/27 11:04:12;;;;;;;;;;;;;;;;;;5055516;28;19921;-85
2021/01/27 11:06:40;;;;;;;;;;;;;;;;;;5069527;28;19909;-87
2021/01/27 11:09:07;;;;;;;;;;;;;;;;;;5069627;28;19944;-87
2021/01/27 11:11:33;;;;;;;;;;;;;;;;;;5061875;28;19955;-86
2021/01/27 11:13:59;;;;;;;;;;;;;;;;;;5058472;28;19929;-87
2021/01/27 11:16:26;;;;;;;;;;;;;;;;;;5059966;28;20365;-85
2021/01/27 11:18:52;;;;;;;;;;;;;;;;;;5049455;28;19951;-85
2021/01/27 11:21:19;;;;;;;;;;;;;;;;;;5069540;28;20006;-85
2021/01/27 11:23:45;;;;;;;;;;;;;;;;;;5059138;28;19921;-83
2021/01/27 11:26:18;;;;;;;;;;;;;;;;;;5058102;28;19924;-82
2021/01/27 11:28:45;;;;;;;;;;;;;;;;;;5064427;28;19920;-85
2021/01/27 11:31:11;;;;;;;;;;;;;;;;;;5064344;28;19924;-82
2021/01/27 11:33:38;;;;;;;;;;;;;;;;;;5056785;28;20369;-83
2021/01/27 11:36:04;;;;;;;;;;;;;;;;;;5063299;28;19921;-84
2021/01/27 11:38:31;;;;;;;;;;;;;;;;;;5062171;28;19928;-87
2021/01/27 11:40:57;;;;;;;;;;;;;;;;;;5066908;28;20381;-84
2021/01/27 11:43:23;;;;;;;;;;;;;;;;;;5043902;28;19921;-87
2021/01/27 11:45:50;;;;;;;;;;;;;;;;;;5064127;28;19921;-85
2021/01/27 11:48:16;;;;;;;;;;;;;;;;;;5059418;28;19927;-86
2021/01/27 11:50:43;;;;;;;;;;;;;;;;;;5059740;28;19928;-85
2021/01/27 11:53:09;;;;;;;;;;;;;;;;;;5060187;28;19924;-85
2021/01/27 11:55:35;;;;;;;;;;;;;;;;;;5061104;28;19921;-85
2021/01/27 11:58:02;;;;;;;;;;;;;;;;;;5062401;28;19975;-87
2021/01/27 12:00:30;;;;;;;;;;;;;;;;;;5065381;28;20369;-88
2021/01/27 12:02:57;;;;;;;;;;;;;;;;;;5068042;28;19928;-84
2021/01/27 12:05:23;;;;;;;;;;;;;;;;;;5068814;28;19925;-87
2021/01/27 12:07:51;;;;;;;;;;;;;;;;;;5063611;28;19925;-88
2021/01/27 12:10:17;;;;;;;;;;;;;;;;;;5050487;28;19925;-86
2021/01/27 12:12:44;;;;;;;;;;;;;;;;;;5051975;28;19933;-86
2021/01/27 12:15:11;;;;;;;;;;;;;;;;;;5063176;28;19920;-87
2021/01/27 12:17:38;;;;;;;;;;;;;;;;;;5063752;28;20277;-88
2021/01/27 12:20:04;;;;;;;;;;;;;;;;;;5062957;28;20386;-87
2021/01/27 12:22:31;;;;;;;;;;;;;;;;;;5060597;28;19927;-87
2021/01/27 12:24:57;;;;;;;;;;;;;;;;;;5054445;28;19921;-87
2021/01/27 12:27:23;;;;;;;;;;;;;;;;;;5066428;28;19966;-87
2021/01/27 12:29:50;;;;;;;;;;;;;;;;;;5063528;28;19955;-86
2021/01/27 12:32:16;;;;;;;;;;;;;;;;;;5062079;28;19921;-86
2021/01/27 12:34:43;;;;;;;;;;;;;;;;;;5047721;28;19956;-86
2021/01/27 12:37:09;;;;;;;;;;;;;;;;;;5059583;28;19932;-86
2021/01/27 12:39:36;;;;;;;;;;;;;;;;;;5041193;28;20316;-87
2021/01/27 12:42:02;;;;;;;;;;;;;;;;;;5043532;28;19961;-87
2021/01/27 12:44:37;;;;;;;;;;;;;;;;;;5067163;28;19936;-87
2021/01/27 12:47:03;;;;;;;;;;;;;;;;;;5070038;28;20016;-87
2021/01/27 12:49:30;;;;;;;;;;;;;;;;;;5052776;28;19928;-88
2021/01/27 12:51:57;;;;;;;;;;;;;;;;;;5044074;28;19987;-87
2021/01/27 12:54:23;;;;;;;;;;;;;;;;;;5045675;28;19967;-87
2021/01/27 12:56:50;;;;;;;;;;;;;;;;;;5058143;28;20134;-88
2021/01/27 12:59:16;;;;;;;;;;;;;;;;;;5058819;28;20427;-88
2021/01/27 13:01:43;;;;;;;;;;;;;;;;;;5059106;28;19925;-89
2021/01/27 13:04:09;;;;;;;;;;;;;;;;;;5059811;28;19931;-87
2021/01/27 13:06:36;;;;;;;;;;;;;;;;;;5059575;28;19928;-89
2021/01/27 13:09:02;;;;;;;;;;;;;;;;;;5060000;28;19927;-86
2021/01/27 13:11:29;;;;;;;;;;;;;;;;;;5058840;28;19954;-87
2021/01/27 13:13:55;;;;;;;;;;;;;;;;;;5059068;28;19928;-86
2021/01/27 13:16:22;;;;;;;;;;;;;;;;;;5058321;28;19920;-88
2021/01/27 13:18:48;;;;;;;;;;;;;;;;;;5076271;28;19921;-86
2021/01/27 13:21:14;;;;;;;;;;;;;;;;;;5059206;28;19921;-87
2021/01/27 13:23:47;;;;;;;;;;;;;;;;;;5057722;28;19921;-86
2021/01/27 13:26:14;;;;;;;;;;;;;;;;;;5057049;28;19921;-86
2021/01/27 13:31:27;;;;;;;;;;;;;;;;;;5056395;28;19920;-88
2021/01/27 13:33:54;;;;;;;;;;;;;;;;;;5058576;28;19920;-88
2021/01/27 13:36:25;;;;;;;;;;;;;;;;;;5057206;28;19983;-88
2021/01/27 13:38:51;;;;;;;;;;;;;;;;;;5049571;28;19921;-87
2021/01/27 13:41:18;;;;;;;;;;;;;;;;;;5060416;28;19944;-88
2021/01/27 13:43:44;;;;;;;;;;;;;;;;;;5043554;28;19928;-86
2021/01/27 13:46:11;;;;;;;;;;;;;;;;;;5050583;28;20275;-86
2021/01/27 13:48:37;;;;;;;;;;;;;;;;;;5049832;28;19927;-87
2021/01/27 13:51:04;;;;;;;;;;;;;;;;;;5056058;28;19929;-85
2021/01/27 13:53:30;;;;;;;;;;;;;;;;;;5055561;28;19928;-87
2021/01/27 13:55:57;;;;;;;;;;;;;;;;;;5061073;28;20403;-87
2021/01/27 13:58:23;;;;;;;;;;;;;;;;;;5059064;28;19932;-86
2021/01/27 14:00:49;;;;;;;;;;;;;;;;;;5059329;28;19944;-85
2021/01/27 14:03:16;;;;;;;;;;;;;;;;;;5048123;28;20308;-87
2021/01/27 14:05:42;;;;;;;;;;;;;;;;;;5065097;28;20627;-86
2021/01/27 14:08:09;;;;;;;;;;;;;;;;;;5080496;28;19924;-87
2021/01/27 14:10:35;;;;;;;;;;;;;;;;;;5064124;28;19927;-87
2021/01/27 14:13:02;;;;;;;;;;;;;;;;;;5082794;28;19916;-85
2021/01/27 14:15:28;;;;;;;;;;;;;;;;;;5093435;28;20341;-85
2021/01/27 14:17:55;;;;;;;;;;;;;;;;;;5083165;28;19920;-85
2021/01/27 14:20:21;;;;;;;;;;;;;;;;;;5084332;28;19913;-87
2021/01/27 14:22:49;;;;;;;;;;;;;;;;;;5063410;28;19928;-87
2021/01/27 14:25:18;;;;;;;;;;;;;;;;;;5041401;28;19988;-86
2021/01/27 14:27:44;;;;;;;;;;;;;;;;;;5041479;28;19967;-86
2021/01/27 14:30:10;;;;;;;;;;;;;;;;;;5060635;28;19920;-88
2021/01/27 14:32:37;;;;;;;;;;;;;;;;;;5060641;28;19920;-87
2021/01/27 14:35:03;;;;;;;;;;;;;;;;;;5060667;28;20066;-88
2021/01/27 14:37:30;;;;;;;;;;;;;;;;;;5063348;28;19939;-85
2021/01/27 14:39:57;;;;;;;;;;;;;;;;;;5069110;28;19905;-86
2021/01/27 14:42:23;;;;;;;;;;;;;;;;;;5060385;28;19921;-86
2021/01/27 14:44:50;;;;;;;;;;;;;;;;;;5061435;28;19920;-86
2021/01/27 14:47:16;;;;;;;;;;;;;;;;;;5061106;28;19921;-87
2021/01/27 14:49:42;;;;;;;;;;;;;;;;;;5061349;28;19924;-85
2021/01/27 14:52:09;;;;;;;;;;;;;;;;;;5061611;28;19971;-86
2021/01/27 14:54:35;;;;;;;;;;;;;;;;;;5061928;28;19921;-86
2021/01/27 14:57:02;;;;;;;;;;;;;;;;;;5062390;28;19921;-84
2021/01/27 14:59:28;;;;;;;;;;;;;;;;;;5060280;28;20396;-86
2021/01/27 15:01:54;;;;;;;;;;;;;;;;;;5058032;28;19979;-86
2021/01/27 15:04:21;;;;;;;;;;;;;;;;;;5072443;28;19916;-87
2021/01/27 15:06:47;;;;;;;;;;;;;;;;;;5073228;28;19920;-87
2021/01/27 15:09:14;;;;;;;;;;;;;;;;;;5053551;28;19928;-86
2021/01/27 15:11:50;;;;;;;;;;;;;;;;;;5062242;28;19942;-86
2021/01/27 15:14:45;;;;;;;;;;;;;;;;;;;;;
2021/01/27 15:17:17;;;;;;;;;;;;;;;;;;5058818;28;19929;-88
2021/01/27 15:19:44;;;;;;;;;;;;;;;;;;5078851;28;19966;-85
2021/01/27 15:22:14;;;;;;;;;;;;;;;;;;5052045;28;19921;-83
2021/01/27 15:24:40;;;;;;;;;;;;;;;;;;5071110;28;20603;-83
2021/01/27 15:27:07;;;;;;;;;;;;;;;;;;5069513;28;19927;-84
2021/01/27 15:29:34;;;;;;;;;;;;;;;;;;5059255;28;19932;-83
2021/01/27 15:32:00;;;;;;;;;;;;;;;;;;5058201;28;19936;-84
2021/01/27 15:34:26;;;;;;;;;;;;;;;;;;5061062;28;19920;-86
2021/01/27 15:36:55;;;;;;;;;;;;;;;;;;5060338;28;19921;-86
2021/01/27 15:39:21;;;;;;;;;;;;;;;;;;5056511;28;19921;-85
2021/01/27 15:41:48;;;;;;;;;;;;;;;;;;5061827;28;19999;-86
2021/01/27 15:44:16;;;;;;;;;;;;;;;;;;5062049;28;20293;-85
2021/01/27 15:46:42;;;;;;;;;;;;;;;;;;5071785;28;19925;-83
2021/01/27 15:49:08;;;;;;;;;;;;;;;;;;5059287;28;19932;-85
2021/01/27 15:51:35;;;;;;;;;;;;;;;;;;5064854;28;19956;-86
2021/01/27 15:54:01;;;;;;;;;;;;;;;;;;5060175;28;19927;-86
2021/01/27 15:56:28;;;;;;;;;;;;;;;;;;5060942;28;19925;-88
2021/01/27 15:58:55;;;;;;;;;;;;;;;;;;5056841;28;19980;-87
2021/01/27 16:01:22;;;;;;;;;;;;;;;;;;5050650;28;19944;-86
2021/01/27 16:03:50;;;;;;;;;;;;;;;;;;5040140;28;21381;-86
2021/01/27 16:06:16;;;;;;;;;;;;;;;;;;5042907;28;19925;-85
2021/01/27 16:08:42;;;;;;;;;;;;;;;;;;5037272;28;19932;-87
2021/01/27 16:11:09;;;;;;;;;;;;;;;;;;5046148;28;19929;-86
2021/01/27 16:13:35;;;;;;;;;;;;;;;;;;5040193;28;19956;-85
2021/01/27 16:16:02;;;;;;;;;;;;;;;;;;5048073;28;19929;-88
2021/01/27 16:18:28;;;;;;;;;;;;;;;;;;5045873;28;19936;-88
2021/01/27 16:20:55;;;;;;;;;;;;;;;;;;5044887;28;19925;-88
2021/01/27 16:23:21;;;;;;;;;;;;;;;;;;5045968;28;19933;-88
2021/01/27 16:25:48;;;;;;;;;;;;;;;;;;5040161;28;19925;-89
2021/01/27 16:28:14;;;;;;;;;;;;;;;;;;5040210;28;19925;-86
2021/01/27 16:30:40;;;;;;;;;;;;;;;;;;5041045;28;19939;-86
2021/01/27 16:33:07;;;;;;;;;;;;;;;;;;5041807;28;19940;-86
2021/01/27 16:35:35;;;;;;;;;;;;;;;;;;5041169;28;20353;-86
2021/01/27 16:38:01;;;;;;;;;;;;;;;;;;5041026;28;19972;-85
2021/01/27 16:40:27;;;;;;;;;;;;;;;;;;5039089;28;19984;-85
2021/01/27 16:42:55;;;;;;;;;;;;;;;;;;5043155;28;20337;-86
2021/01/27 16:45:29;;;;;;;;;;;;;;;;;;5033576;28;20289;-86
2021/01/27 16:47:56;;;;;;;;;;;;;;;;;;5060938;28;20023;-85
2021/01/27 16:50:23;;;;;;;;;;;;;;;;;;5061325;28;19926;-86
2021/01/27 16:52:51;;;;;;;;;;;;;;;;;;5054752;28;19936;-87
2021/01/27 16:55:24;;;;;;;;;;;;;;;;;;5049361;28;19925;-87
2021/01/27 16:57:51;;;;;;;;;;;;;;;;;;5062006;28;19970;-86
2021/01/27 17:00:35;;;;;;;;;;;;;;;;;;5062216;28;19932;-87
2021/01/27 17:03:02;;;;;;;;;;;;;;;;;;5055767;28;19947;-85
2021/01/27 17:05:37;;;;;;;;;;;;;;;;;;5050331;28;19936;-85
2021/01/27 17:08:06;;;;;;;;;;;;;;;;;;5062220;28;19947;-87
2021/01/27 17:10:34;;;;;;;;;;;;;;;;;;5052126;28;19972;-87
2021/01/27 17:13:02;;;;;;;;;;;;;;;;;;5041538;28;20351;-85
2021/01/27 17:15:28;;;;;;;;;;;;;;;;;;5042981;28;19935;-86
2021/01/27 17:17:55;;;;;;;;;;;;;;;;;;5064365;28;19925;-87
2021/01/27 17:20:21;;;;;;;;;;;;;;;;;;5063440;28;19924;-86
2021/01/27 17:22:48;;;;;;;;;;;;;;;;;;5047471;28;20353;-86
2021/01/27 17:25:17;;;;;;;;;;;;;;;;;;5041469;28;19986;-86
2021/01/27 17:27:44;;;;;;;;;;;;;;;;;;5042979;28;19925;-86
2021/01/27 17:30:13;;;;;;;;;;;;;;;;;;5044612;28;19925;-86
2021/01/27 17:32:42;;;;;;;;;;;;;;;;;;5048517;28;19971;-86
2021/01/27 17:35:13;;;;;;;;;;;;;;;;;;5045936;28;20008;-86
2021/01/27 17:37:47;;;;;;;;;;;;;;;;;;5054946;28;19925;-86
2021/01/27 17:40:16;;;;;;;;;;;;;;;;;;5044015;28;20309;-87
2021/01/27 17:42:42;;;;;;;;;;;;;;;;;;5042597;28;19932;-85
2021/01/27 17:45:08;;;;;;;;;;;;;;;;;;5043462;28;19984;-86
2021/01/27 17:47:35;;;;;;;;;;;;;;;;;;5027503;28;19925;-85
2021/01/27 17:50:02;;;;;;;;;;;;;;;;;;5025364;28;20023;-86
2021/01/27 17:52:28;;;;;;;;;;;;;;;;;;5040451;28;19936;-85
2021/01/27 17:54:54;;;;;;;;;;;;;;;;;;5043387;28;19941;-86
2021/01/27 17:57:21;;;;;;;;;;;;;;;;;;5048948;28;19932;-86
2021/01/27 17:59:47;;;;;;;;;;;;;;;;;;5064147;28;19931;-84
2021/01/27 18:02:14;;;;;;;;;;;;;;;;;;5045153;28;19925;-88
2021/01/27 18:04:40;;;;;;;;;;;;;;;;;;5049698;28;19924;-86
2021/01/27 18:07:07;;;;;;;;;;;;;;;;;;5070512;28;20355;-86
2021/01/27 18:09:33;;;;;;;;;;;;;;;;;;5077422;28;19909;-86
2021/01/27 18:12:00;;;;;;;;;;;;;;;;;;5073329;28;19956;-86
2021/01/27 18:14:28;;;;;;;;;;;;;;;;;;5069950;28;20004;-84
2021/01/27 18:16:55;;;;;;;;;;;;;;;;;;5064169;28;19935;-87
2021/01/27 18:19:21;;;;;;;;;;;;;;;;;;5068295;28;19908;-86
2021/01/27 18:21:48;;;;;;;;;;;;;;;;;;5067479;28;19936;-87
2021/01/27 18:24:14;;;;;;;;;;;;;;;;;;5054909;28;19925;-87
2021/01/27 18:26:42;;;;;;;;;;;;;;;;;;5050685;28;19931;-85
2021/01/27 18:29:08;;;;;;;;;;;;;;;;;;5049550;28;19957;-86
2021/01/27 18:31:36;;;;;;;;;;;;;;;;;;5052047;28;19960;-87
2021/01/27 18:34:03;;;;;;;;;;;;;;;;;;5044663;28;19947;-86
2021/01/27 18:36:29;;;;;;;;;;;;;;;;;;5044782;28;19925;-87
2021/01/27 18:38:56;;;;;;;;;;;;;;;;;;5041901;28;19925;-85
2021/01/27 18:41:22;;;;;;;;;;;;;;;;;;5041945;28;19925;-85
2021/01/27 18:44:08;;;;;;;;;;;;;;;;;;5053321;28;20023;-85
2021/01/27 18:46:35;;;;;;;;;;;;;;;;;;5061445;28;20270;-85
2021/01/27 18:49:03;;;;;;;;;;;;;;;;;;5060252;28;19929;-85
2021/01/27 18:51:30;;;;;;;;;;;;;;;;;;5042880;28;19925;-86
2021/01/27 18:53:56;;;;;;;;;;;;;;;;;;5061936;28;19924;-85
2021/01/27 18:56:23;;;;;;;;;;;;;;;;;;5083952;28;19979;-85
2021/01/27 18:58:49;;;;;;;;;;;;;;;;;;5082834;28;19925;-85
2021/01/27 19:01:16;;;;;;;;;;;;;;;;;;5072827;28;19983;-85
2021/01/27 19:03:42;;;;;;;;;;;;;;;;;;5064764;28;19925;-86
2021/01/27 19:06:09;;;;;;;;;;;;;;;;;;5051184;28;19988;-83
2021/01/27 19:08:54;;;;;;;;;;;;;;;;;;5052696;28;19948;-84
2021/01/27 19:11:20;;;;;;;;;;;;;;;;;;5048072;28;20332;-85
2021/01/27 19:13:47;;;;;;;;;;;;;;;;;;5053251;28;19925;-85
2021/01/27 19:19:00;;;;;;;;;;;;;;;;;;5060929;28;19988;-83
2021/01/27 19:21:26;;;;;;;;;;;;;;;;;;5061737;28;19925;-86
2021/01/27 19:23:55;;;;;;;;;;;;;;;;;;5069902;28;19932;-86
2021/01/27 19:26:21;;;;;;;;;;;;;;;;;;5066596;28;19956;-86
2021/01/27 19:28:47;;;;;;;;;;;;;;;;;;5062764;28;19931;-85
2021/01/27 19:31:14;;;;;;;;;;;;;;;;;;5061815;28;19925;-85
2021/01/27 19:33:40;;;;;;;;;;;;;;;;;;5070440;28;19925;-86
2021/01/27 19:36:07;;;;;;;;;;;;;;;;;;5063132;28;20309;-85
2021/01/27 19:38:33;;;;;;;;;;;;;;;;;;5069013;28;19924;-85
2021/01/27 19:41:00;;;;;;;;;;;;;;;;;;5063773;28;19924;-85
2021/01/27 19:43:26;;;;;;;;;;;;;;;;;;5074061;28;19924;-88
2021/01/27 19:45:53;;;;;;;;;;;;;;;;;;5071131;28;19960;-86
2021/01/27 19:48:27;;;;;;;;;;;;;;;;;;5074243;28;19989;-87
2021/01/27 19:50:55;;;;;;;;;;;;;;;;;;5078094;28;19924;-89
2021/01/27 19:53:23;;;;;;;;;;;;;;;;;;5069683;28;19916;-86
2021/01/27 19:55:50;;;;;;;;;;;;;;;;;;5057711;28;19947;-88
2021/01/27 19:58:20;;;;;;;;;;;;;;;;;;5072168;28;20056;-87
2021/01/27 20:00:47;;;;;;;;;;;;;;;;;;5070214;28;19926;-86
2021/01/27 20:03:14;;;;;;;;;;;;;;;;;;5063348;28;19925;-86
2021/01/27 20:05:40;;;;;;;;;;;;;;;;;;5063209;28;19931;-87
2021/01/27 20:08:07;;;;;;;;;;;;;;;;;;5064109;28;20020;-86
2021/01/27 20:10:34;;;;;;;;;;;;;;;;;;5064228;28;19947;-85
2021/01/27 20:13:01;;;;;;;;;;;;;;;;;;5063629;28;19931;-87
2021/01/27 20:15:27;;;;;;;;;;;;;;;;;;5064225;28;19948;-86
2021/01/27 20:20:31;;;;;;;;;;;;;;;;;;5060573;28;19924;-86
2021/01/27 20:22:57;;;;;;;;;;;;;;;;;;5061136;28;19990;-86
2021/01/27 20:25:24;;;;;;;;;;;;;;;;;;5061515;28;19924;-86
2021/01/27 20:27:50;;;;;;;;;;;;;;;;;;5062115;28;19925;-86
2021/01/27 20:30:19;;;;;;;;;;;;;;;;;;5061022;28;19925;-86
2021/01/27 20:32:50;;;;;;;;;;;;;;;;;;5061826;28;19925;-85
2021/01/27 20:35:16;;;;;;;;;;;;;;;;;;5061525;28;19925;-85
2021/01/27 20:37:44;;;;;;;;;;;;;;;;;;5061098;28;19928;-86
2021/01/27 20:40:11;;;;;;;;;;;;;;;;;;5061760;28;19970;-86
2021/01/27 20:42:46;;;;;;;;;;;;;;;;;;5062522;28;19929;-85
2021/01/27 20:45:12;;;;;;;;;;;;;;;;;;5061801;28;19982;-86
2021/01/27 20:47:39;;;;;;;;;;;;;;;;;;5065245;28;19935;-87
2021/01/27 20:50:20;;;;;;;;;;;;;;;;;;5065477;28;19925;-87
2021/01/27 20:52:47;;;;;;;;;;;;;;;;;;5075311;28;19924;-87
2021/01/27 20:55:14;;;;;;;;;;;;;;;;;;5068492;28;19924;-88
2021/01/27 20:57:40;;;;;;;;;;;;;;;;;;5067104;28;20012;-87
2021/01/27 21:00:08;;;;;;;;;;;;;;;;;;5052527;28;19946;-88
2021/01/27 21:02:34;;;;;;;;;;;;;;;;;;5063505;28;19925;-88
2021/01/27 21:05:03;;;;;;;;;;;;;;;;;;5049314;28;19925;-89
2021/01/27 21:07:29;;;;;;;;;;;;;;;;;;5062967;28;19925;-88
2021/01/27 21:10:01;;;;;;;;;;;;;;;;;;5055748;28;19909;-90
2021/01/27 21:12:27;;;;;;;;;;;;;;;;;;5047411;28;20020;-88
2021/01/27 21:14:54;;;;;;;;;;;;;;;;;;5045844;28;19925;-88
2021/01/27 21:17:20;;;;;;;;;;;;;;;;;;5062386;28;19925;-87
2021/01/27 21:19:47;;;;;;;;;;;;;;;;;;5062861;28;20274;-89
2021/01/27 21:22:13;;;;;;;;;;;;;;;;;;5062151;28;19955;-88
2021/01/27 21:24:40;;;;;;;;;;;;;;;;;;5065012;28;19925;-89
2021/01/27 21:27:06;;;;;;;;;;;;;;;;;;5067034;28;19947;-88
2021/01/27 21:29:33;;;;;;;;;;;;;;;;;;5063644;28;19929;-89
2021/01/27 21:31:59;;;;;;;;;;;;;;;;;;5068496;28;19928;-87
2021/01/27 21:34:25;;;;;;;;;;;;;;;;;;5075437;28;19909;-89
2021/01/27 21:36:52;;;;;;;;;;;;;;;;;;5079485;28;19968;-89
2021/01/27 21:39:18;;;;;;;;;;;;;;;;;;5061865;28;19928;-87
2021/01/27 21:41:45;;;;;;;;;;;;;;;;;;5062388;28;19924;-87
2021/01/27 21:44:11;;;;;;;;;;;;;;;;;;5063179;28;19940;-87
2021/01/27 21:46:38;;;;;;;;;;;;;;;;;;5068227;28;20452;-88
2021/01/27 21:49:04;;;;;;;;;;;;;;;;;;5066411;28;19924;-89
2021/01/27 21:51:37;;;;;;;;;;;;;;;;;;5082526;28;20010;-88
2021/01/27 21:54:04;;;;;;;;;;;;;;;;;;5082817;28;19924;-88
2021/01/27 21:56:31;;;;;;;;;;;;;;;;;;5082075;28;20305;-89
2021/01/27 21:58:57;;;;;;;;;;;;;;;;;;5074966;28;19932;-90
2021/01/27 22:01:24;;;;;;;;;;;;;;;;;;5079216;28;19948;-88
2021/01/27 22:03:50;;;;;;;;;;;;;;;;;;5073138;28;20127;-89
2021/01/27 22:06:17;;;;;;;;;;;;;;;;;;5077981;28;19920;-89
2021/01/27 22:08:45;;;;;;;;;;;;;;;;;;5078714;28;19947;-88
2021/01/27 22:11:12;;;;;;;;;;;;;;;;;;5074905;28;19924;-88
2021/01/27 22:13:38;;;;;;;;;;;;;;;;;;5061134;28;20019;-88
2021/01/27 22:16:05;;;;;;;;;;;;;;;;;;5061926;28;19944;-88
2021/01/27 22:18:31;;;;;;;;;;;;;;;;;;5061031;28;19925;-88
2021/01/27 22:20:58;;;;;;;;;;;;;;;;;;5063747;28;20359;-89
2021/01/27 22:23:24;;;;;;;;;;;;;;;;;;5063960;28;19931;-89
2021/01/27 22:25:52;;;;;;;;;;;;;;;;;;5069162;28;19968;-93
2021/01/27 22:28:19;;;;;;;;;;;;;;;;;;5079219;28;19927;-91
2021/01/27 22:30:46;;;;;;;;;;;;;;;;;;5079112;28;19913;-90
2021/01/27 22:33:13;;;;;;;;;;;;;;;;;;5065816;28;19932;-89
2021/01/27 22:35:39;;;;;;;;;;;;;;;;;;5061128;28;19925;-89
2021/01/27 22:38:06;;;;;;;;;;;;;;;;;;5061686;28;19925;-89
2021/01/27 22:40:36;;;;;;;;;;;;;;;;;;5061780;28;19960;-88
2021/01/27 22:43:03;;;;;;;;;;;;;;;;;;5064705;28;20344;-90
2021/01/27 22:45:29;;;;;;;;;;;;;;;;;;5068491;28;19973;-91
2021/01/27 22:47:56;;;;;;;;;;;;;;;;;;5075579;28;19943;-92
2021/01/27 22:50:22;;;;;;;;;;;;;;;;;;5071090;28;19932;-90
2021/01/27 22:52:49;;;;;;;;;;;;;;;;;;5070973;28;19931;-91
2021/01/27 22:55:15;;;;;;;;;;;;;;;;;;5062067;28;19952;-89
2021/01/27 22:57:42;;;;;;;;;;;;;;;;;;5061398;28;19928;-90
2021/01/27 23:00:08;;;;;;;;;;;;;;;;;;5061042;28;19954;-90
2021/01/27 23:02:35;;;;;;;;;;;;;;;;;;5060354;28;19947;-90
2021/01/27 23:05:01;;;;;;;;;;;;;;;;;;5060400;28;19925;-90
2021/01/27 23:07:28;;;;;;;;;;;;;;;;;;5065505;28;19928;-89
2021/01/27 23:09:54;;;;;;;;;;;;;;;;;;5065358;28;19925;-88
2021/01/27 23:12:21;;;;;;;;;;;;;;;;;;5048278;28;19925;-89
2021/01/27 23:14:47;;;;;;;;;;;;;;;;;;5040767;28;20342;-92
2021/01/27 23:17:14;;;;;;;;;;;;;;;;;;5057438;28;20366;-91
2021/01/27 23:19:40;;;;;;;;;;;;;;;;;;5057183;28;19974;-89
2021/01/27 23:22:07;;;;;;;;;;;;;;;;;;5058690;28;19955;-88
2021/01/27 23:24:33;;;;;;;;;;;;;;;;;;5057822;28;19913;-88
2021/01/27 23:26:59;;;;;;;;;;;;;;;;;;5071893;28;20027;-87
2021/01/27 23:29:26;;;;;;;;;;;;;;;;;;5063708;28;19924;-88
2021/01/27 23:31:52;;;;;;;;;;;;;;;;;;5051560;28;20290;-88
2021/01/27 23:34:19;;;;;;;;;;;;;;;;;;5054332;28;20335;-89
2021/01/27 23:36:46;;;;;;;;;;;;;;;;;;5064291;28;19924;-89
2021/01/27 23:39:13;;;;;;;;;;;;;;;;;;5063434;28;19931;-89
2021/01/27 23:41:39;;;;;;;;;;;;;;;;;;5061179;28;19915;-87
2021/01/27 23:44:05;;;;;;;;;;;;;;;;;;5076604;28;19984;-89
2021/01/27 23:46:32;;;;;;;;;;;;;;;;;;5053191;28;19925;-89
2021/01/27 23:48:58;;;;;;;;;;;;;;;;;;5053298;28;19931;-89
2021/01/27 23:51:25;;;;;;;;;;;;;;;;;;5057325;28;19925;-89
2021/01/27 23:53:51;;;;;;;;;;;;;;;;;;5063444;28;19931;-89
2021/01/27 23:56:20;;;;;;;;;;;;;;;;;;5062551;28;19959;-89
2021/01/27 23:58:46;;;;;;;;;;;;;;;;;;5061887;28;19932;-88
